Time;durP1;ratioP1;P1;durP2;ratioP2;P2;SDS_P1;SDS_P2;PMS_P1;PMS_P2;Temp;Humidity;BMP_temperature;BMP_pressure;BME280_temperature;BME280_humidity;BME280_pressure;Samples;Min_cycle;Max_cycle;Signal;HPM_P1;HPM_P2
2021/11/08 00:01:19;;;;;;;12.48;5.15;;;;;;;6.44;68.78;98238.50;4969299;28;20050;-78
2021/11/08 00:03:48;;;;;;;11.18;4.78;;;;;;;6.39;68.67;98206.78;4962445;28;20050;-79
2021/11/08 00:06:16;;;;;;;11.90;4.68;;;;;;;6.38;68.73;98216.03;4971971;28;20050;-78
2021/11/08 00:08:43;;;;;;;13.23;4.80;;;;;;;6.39;68.69;98228.50;4954429;28;20150;-78
2021/11/08 00:11:09;;;;;;;13.30;5.10;;;;;;;6.32;68.81;98200.84;4948766;28;20497;-79
2021/11/08 00:13:37;;;;;;;13.45;5.35;;;;;;;6.29;68.58;98194.13;4955367;28;20495;-79
2021/11/08 00:18:39;;;;;;;13.60;5.35;;;;;;;6.36;68.63;98210.88;4970956;28;20070;-79
2021/11/08 00:21:07;;;;;;;11.20;4.55;;;;;;;6.34;68.38;98207.63;4970605;28;20053;-73
2021/11/08 00:23:33;;;;;;;10.90;5.00;;;;;;;6.37;68.47;98192.69;4972257;28;20606;-73
2021/11/08 00:26:00;;;;;;;11.45;4.80;;;;;;;6.35;68.26;98201.09;4969620;28;20133;-73
2021/11/08 00:28:26;;;;;;;14.33;5.60;;;;;;;6.34;68.26;98201.41;4971373;28;20442;-73
2021/11/08 00:30:54;;;;;;;10.95;4.93;;;;;;;6.30;68.13;98182.16;4970375;28;20059;-73
2021/11/08 00:33:21;;;;;;;13.60;5.50;;;;;;;6.26;68.19;98202.84;4969437;28;20074;-73
2021/11/08 00:35:49;;;;;;;13.03;5.97;;;;;;;6.26;68.14;98186.56;4971602;28;20047;-73
2021/11/08 00:38:17;;;;;;;14.05;5.55;;;;;;;6.30;68.08;98168.59;4969349;28;20103;-73
2021/11/08 00:40:45;;;;;;;11.70;4.97;;;;;;;6.26;67.93;98180.28;4966598;28;20046;-73
2021/11/08 00:43:12;;;;;;;12.00;5.05;;;;;;;6.31;67.90;98191.09;4964503;28;20097;-73
2021/11/08 00:45:38;;;;;;;14.77;5.80;;;;;;;6.14;68.17;98207.81;4952091;28;20186;-73
2021/11/08 00:48:05;;;;;;;11.48;4.70;;;;;;;6.24;68.22;98169.72;4970430;28;20507;-74
2021/11/08 00:50:32;;;;;;;11.30;4.88;;;;;;;6.18;68.35;98168.97;4968458;28;20081;-74
2021/11/08 00:52:59;;;;;;;11.43;5.03;;;;;;;6.13;68.19;98200.78;4970306;28;20102;-73
2021/11/08 00:55:29;;;;;;;11.57;4.97;;;;;;;6.14;68.12;98169.81;4953573;28;20106;-74
2021/11/08 00:57:58;;;;;;;14.10;5.55;;;;;;;6.08;68.19;98150.84;4971366;28;20086;-74
2021/11/08 01:00:27;;;;;;;12.38;5.32;;;;;;;6.15;68.20;98163.31;4969797;28;20415;-74
2021/11/08 01:02:53;;;;;;;12.13;5.05;;;;;;;6.16;67.96;98154.06;4953416;28;20053;-73
2021/11/08 01:05:20;;;;;;;12.98;5.65;;;;;;;6.08;67.98;98126.44;4955914;28;20047;-73
2021/11/08 01:07:47;;;;;;;12.57;5.15;;;;;;;6.20;67.93;98146.97;4964435;28;20058;-73
2021/11/08 01:10:15;;;;;;;13.45;5.70;;;;;;;6.12;68.02;98153.03;4953031;28;20078;-73
2021/11/08 01:12:42;;;;;;;12.68;5.88;;;;;;;6.12;67.91;98153.03;4953781;28;20050;-73
2021/11/08 01:15:10;;;;;;;12.60;5.65;;;;;;;6.16;68.07;98173.06;4970868;28;20086;-71
2021/11/08 01:17:36;;;;;;;;;;;;;;;6.17;67.93;98123.94;4954198;28;20563;-74
2021/11/08 01:20:06;;;;;;;11.85;5.05;;;;;;;6.17;68.00;98144.81;4968830;28;19926;-73
2021/11/08 01:22:34;;;;;;;12.32;5.35;;;;;;;6.12;68.06;98134.03;4969727;28;20054;-73
2021/11/08 01:25:00;;;;;;;11.98;5.05;;;;;;;6.15;67.96;98155.16;4969219;28;20599;-73
2021/11/08 01:27:40;;;;;;;15.90;5.50;;;;;;;6.13;67.93;98116.66;4966598;28;20039;-73
2021/11/08 01:30:13;;;;;;;12.52;5.63;;;;;;;6.08;67.99;98110.16;4944478;28;20055;-74
2021/11/08 01:32:39;;;;;;;13.50;5.35;;;;;;;6.10;67.81;98109.88;4972220;28;20043;-72
2021/11/08 01:35:05;;;;;;;14.77;5.35;;;;;;;6.08;67.96;98095.78;4970237;28;20109;-72
2021/11/08 01:37:31;;;;;;;12.55;4.88;;;;;;;6.10;67.94;98089.00;4956249;28;20499;-73
2021/11/08 01:39:58;;;;;;;12.95;5.18;;;;;;;5.93;68.10;98088.56;4971701;28;20139;-73
2021/11/08 01:42:25;;;;;;;13.18;5.55;;;;;;;6.00;68.33;98099.09;4972999;28;20157;-73
2021/11/08 01:44:51;;;;;;;12.45;5.38;;;;;;;6.05;67.98;98083.59;4973354;28;20134;-74
2021/11/08 01:47:18;;;;;;;12.65;5.55;;;;;;;6.04;68.19;98109.13;4972565;28;20138;-73
2021/11/08 01:49:44;;;;;;;15.30;5.78;;;;;;;6.07;68.04;98091.47;4972645;28;20502;-73
2021/11/08 01:52:12;;;;;;;16.13;5.53;;;;;;;6.00;68.15;98096.38;4972318;28;20046;-73
2021/11/08 01:54:38;;;;;;;16.98;5.80;;;;;;;6.07;67.80;98086.03;4952099;28;20402;-73
2021/11/08 01:57:07;;;;;;;14.15;5.07;;;;;;;6.04;68.32;98081.97;4971504;28;20392;-74
2021/11/08 01:59:34;;;;;;;13.48;5.45;;;;;;;6.05;68.01;98078.16;4955576;28;20049;-73
2021/11/08 02:02:00;;;;;;;13.38;5.78;;;;;;;6.09;68.06;98073.00;4972424;28;20054;-73
2021/11/08 02:04:29;;;;;;;15.18;5.72;;;;;;;6.03;68.03;98087.72;4968471;28;20047;-74
2021/11/08 02:06:55;;;;;;;11.23;4.97;;;;;;;6.06;68.09;98068.94;4935539;28;20069;-73
2021/11/08 02:09:21;;;;;;;13.27;5.55;;;;;;;6.09;68.09;98073.00;4972883;28;20046;-74
2021/11/08 02:11:49;;;;;;;13.10;5.60;;;;;;;6.01;68.29;98076.28;4973149;28;20039;-74
2021/11/08 02:14:15;;;;;;;14.20;5.97;;;;;;;6.06;68.25;98068.94;4972402;28;20133;-74
2021/11/08 02:16:41;;;;;;;13.30;5.50;;;;;;;5.99;68.38;98092.03;4956825;28;20118;-74
2021/11/08 02:19:07;;;;;;;14.85;6.03;;;;;;;6.12;68.15;98090.59;4971104;28;20493;-73
2021/11/08 02:21:36;;;;;;;14.10;5.95;;;;;;;6.00;68.41;98072.78;4954116;28;20075;-73
2021/11/08 02:24:05;;;;;;;12.43;5.55;;;;;;;6.01;68.32;98063.56;4955975;28;20081;-74
2021/11/08 02:26:31;;;;;;;12.27;4.90;;;;;;;6.03;68.11;98055.94;4954450;28;20051;-74
2021/11/08 02:28:57;;;;;;;13.38;6.38;;;;;;;5.99;68.38;98059.47;4970703;28;20082;-74
2021/11/08 02:31:24;;;;;;;15.02;6.60;;;;;;;6.08;67.88;98052.38;4954807;28;20050;-74
2021/11/08 02:33:52;;;;;;;14.82;6.00;;;;;;;6.15;67.94;98062.88;4970720;28;20050;-74
2021/11/08 02:36:21;;;;;;;13.15;5.97;;;;;;;6.06;68.03;98062.72;4954624;28;20409;-74
2021/11/08 02:38:52;;;;;;;13.85;5.68;;;;;;;6.07;68.02;98061.63;4971525;28;20071;-74
2021/11/08 02:41:19;;;;;;;12.55;5.60;;;;;;;6.06;68.11;98057.28;4972138;28;20053;-74
2021/11/08 02:43:46;;;;;;;15.60;6.73;;;;;;;6.03;68.14;98064.09;4968418;28;20047;-74
2021/11/08 02:46:19;;;;;;;15.30;5.80;;;;;;;6.02;68.36;98051.63;4955006;28;20888;-75
2021/11/08 02:48:48;;;;;;;17.67;6.10;;;;;;;5.92;68.51;98043.53;4971484;28;20055;-75
2021/11/08 02:51:22;;;;;;;14.90;6.00;;;;;;;5.97;68.62;98038.09;4971707;28;20422;-74
2021/11/08 02:53:54;;;;;;;16.63;6.03;;;;;;;6.01;68.44;98035.59;4951828;28;20051;-73
2021/11/08 02:56:20;;;;;;;16.63;5.78;;;;;;;6.01;68.35;98028.31;4971541;28;20050;-75
2021/11/08 02:58:47;;;;;;;12.95;6.38;;;;;;;6.04;68.41;98030.44;4971035;28;20523;-74
2021/11/08 03:01:20;;;;;;;18.88;7.45;;;;;;;6.10;68.21;98023.03;4971639;28;20105;-74
2021/11/08 03:03:56;;;;;;;16.10;6.43;;;;;;;6.10;68.14;98014.91;4967823;28;20051;-74
2021/11/08 03:06:32;;;;;;;15.77;6.70;;;;;;;6.12;68.13;98041.75;4959389;28;20065;-75
2021/11/08 03:09:12;;;;;;;14.30;6.22;;;;;;;6.02;68.34;98015.56;4968635;28;20129;-73
2021/11/08 03:11:38;;;;;;;19.23;6.47;;;;;;;6.10;68.00;98044.75;4969921;28;20487;-74
2021/11/08 03:14:06;;;;;;;17.50;6.80;;;;;;;6.14;68.06;98029.50;4972041;28;20042;-74
2021/11/08 03:16:43;;;;;;;17.20;6.38;;;;;;;6.06;68.10;98011.94;4971735;28;20117;-74
2021/11/08 03:22:13;;;;;;;13.98;6.28;;;;;;;5.91;68.23;97987.69;4944100;28;20515;-73
2021/11/08 03:24:54;;;;;;;21.92;6.53;;;;;;;6.01;68.48;97992.16;4972204;28;20078;-73
2021/11/08 03:28:08;;;;;;;13.73;6.30;;;;;;;6.02;68.36;98023.69;4972270;28;20046;-74
2021/11/08 03:30:18;;;;;;;14.90;6.50;;;;;;;6.03;68.44;97998.19;4952751;28;20053;-73
2021/11/08 03:32:45;;;;;;;14.85;6.63;;;;;;;6.08;68.32;98017.09;4954241;28;20042;-73
2021/11/08 03:35:14;;;;;;;14.27;6.63;;;;;;;6.11;68.23;97994.81;4969242;28;20046;-74
2021/11/08 03:37:42;;;;;;;13.18;6.18;;;;;;;6.09;68.26;98019.53;4953647;28;20850;-72
2021/11/08 03:40:14;;;;;;;16.75;6.63;;;;;;;6.04;68.28;98024.22;4970667;28;20130;-73
2021/11/08 03:42:40;;;;;;;15.68;6.70;;;;;;;6.07;68.13;98015.50;4968709;28;20058;-73
2021/11/08 03:45:08;;;;;;;22.20;7.38;;;;;;;6.08;68.18;98006.25;4953150;28;20125;-73
2021/11/08 03:47:35;;;;;;;16.92;7.40;;;;;;;6.13;68.27;97989.09;4954177;28;20419;-73
2021/11/08 03:50:01;;;;;;;16.35;6.85;;;;;;;6.03;68.45;98007.09;4951938;28;20042;-74
2021/11/08 03:52:29;;;;;;;14.82;6.78;;;;;;;6.04;68.47;97978.88;4970383;28;20042;-73
2021/11/08 03:54:55;;;;;;;15.38;6.97;;;;;;;6.07;68.16;97955.78;4936968;28;20042;-72
2021/11/08 03:57:22;;;;;;;20.02;7.22;;;;;;;6.17;67.88;97982.00;4948629;28;20057;-74
2021/11/08 03:59:49;;;;;;;16.27;6.53;;;;;;;6.13;68.01;97960.06;4970119;28;20061;-75
2021/11/08 04:02:15;;;;;;;15.57;6.43;;;;;;;6.07;68.33;97991.84;4969228;28;20130;-74
2021/11/08 04:04:41;;;;;;;14.80;7.15;;;;;;;6.07;68.24;97972.88;4969868;28;20051;-73
2021/11/08 04:07:07;;;;;;;17.98;6.70;;;;;;;6.05;68.19;97982.41;4970773;28;20053;-74
2021/11/08 04:09:34;;;;;;;15.52;6.50;;;;;;;6.03;68.30;97987.31;4971100;28;20117;-75
2021/11/08 04:12:01;;;;;;;14.32;6.88;;;;;;;6.05;68.23;97961.50;4970600;28;20055;-75
2021/11/08 04:14:29;;;;;;;14.60;7.00;;;;;;;6.02;68.61;97999.28;4969385;28;20051;-75
2021/11/08 04:16:55;;;;;;;16.98;6.97;;;;;;;6.00;68.47;97987.84;4968254;28;20101;-74
2021/11/08 04:19:27;;;;;;;17.38;7.57;;;;;;;6.08;68.52;97962.84;4953593;28;20079;-75
2021/11/08 04:21:53;;;;;;;16.13;7.20;;;;;;;6.08;68.29;97988.03;4971266;28;20049;-75
2021/11/08 04:24:19;;;;;;;15.15;6.97;;;;;;;6.07;68.20;97944.94;4970500;28;20034;-74
2021/11/08 04:26:45;;;;;;;17.33;7.28;;;;;;;6.01;68.43;97970.47;4970262;28;20539;-74
2021/11/08 04:29:13;;;;;;;17.33;7.25;;;;;;;6.01;68.51;97965.03;4970028;28;20035;-75
2021/11/08 04:31:41;;;;;;;;;;;;;;;6.03;68.25;97969.13;4969419;28;20046;-73
2021/11/08 05:30:17;;;;;;;18.42;8.27;;;;;;;5.86;70.21;97907.19;4969050;28;20530;-81
2021/11/08 05:32:49;;;;;;;17.17;7.53;;;;;;;5.94;70.45;97905.75;4960964;28;20058;-80
2021/11/08 05:35:17;;;;;;;17.50;7.60;;;;;;;5.95;70.39;97904.63;4955247;28;20047;-79
2021/11/08 05:37:47;;;;;;;17.35;7.43;;;;;;;5.95;70.37;97907.34;4942606;28;20590;-79
2021/11/08 05:40:21;;;;;;;18.85;7.25;;;;;;;5.90;70.42;97902.78;4958072;28;20465;-78
2021/11/08 05:42:48;;;;;;;16.65;7.57;;;;;;;5.93;70.63;97890.53;4952544;28;20053;-79
2021/11/08 05:45:16;;;;;;;17.87;7.57;;;;;;;5.90;71.00;97904.69;4974708;28;20047;-78
2021/11/08 05:47:43;;;;;;;17.73;7.72;;;;;;;5.87;71.10;97891.72;4975517;28;20141;-80
2021/11/08 05:50:11;;;;;;;17.65;7.50;;;;;;;5.84;71.44;97884.16;4964076;28;20044;-79
2021/11/08 05:52:39;;;;;;;16.80;8.15;;;;;;;5.85;71.46;97896.63;4972098;28;20054;-79
2021/11/08 05:55:09;;;;;;;19.70;7.75;;;;;;;5.83;71.62;97888.75;4972773;28;20043;-82
2021/11/08 05:57:44;;;;;;;18.77;8.63;;;;;;;5.80;72.01;97892.06;4973878;28;20058;-80
2021/11/08 06:01:35;;;;;;;15.52;7.82;;;;;;;5.80;72.03;97903.72;4953981;28;20134;-78
2021/11/08 06:50:16;;;;;;;20.17;8.30;;;;;;;5.57;74.75;97851.13;4955506;28;20051;-81
2021/11/08 06:52:49;;;;;;;18.13;9.05;;;;;;;5.66;74.88;97862.94;4969953;28;20051;-81
2021/11/08 06:55:16;;;;;;;19.75;8.38;;;;;;;5.53;75.33;97888.03;4967655;28;20070;-81
2021/11/08 06:57:49;;;;;;;16.10;8.68;;;;;;;5.56;75.43;97882.03;4955630;28;20112;-81
2021/11/08 07:00:17;;;;;;;18.90;8.43;;;;;;;5.49;75.34;97893.22;4971569;28;20046;-82
2021/11/08 07:02:44;;;;;;;19.48;8.10;;;;;;;5.46;75.60;97876.72;4954771;28;20149;-82
2021/11/08 07:05:10;;;;;;;22.63;9.25;;;;;;;5.43;75.81;97856.41;4964550;28;20042;-82
2021/11/08 07:07:36;;;;;;;18.05;8.48;;;;;;;5.58;75.64;97860.88;4968936;28;20074;-82
2021/11/08 07:10:03;;;;;;;18.08;9.10;;;;;;;5.52;75.82;97876.38;4972658;28;20047;-82
2021/11/08 07:12:29;;;;;;;19.63;9.73;;;;;;;5.53;76.07;97866.34;4982319;28;20054;-82
2021/11/08 07:14:56;;;;;;;21.40;8.45;;;;;;;5.56;76.14;97873.09;4950063;28;20053;-80
2021/11/08 07:17:23;;;;;;;20.23;9.25;;;;;;;5.58;76.14;97868.19;4970991;28;20436;-83
2021/11/08 07:19:49;;;;;;;18.02;8.52;;;;;;;5.50;76.01;97861.50;4965076;28;20114;-82
2021/11/08 07:22:15;;;;;;;17.83;8.68;;;;;;;5.49;76.41;97847.16;4967571;28;20055;-82
2021/11/08 07:24:41;;;;;;;20.77;8.65;;;;;;;5.63;75.76;97862.72;4949689;28;20047;-83
2021/11/08 07:27:08;;;;;;;15.93;7.85;;;;;;;5.57;76.01;97870.09;4970439;28;20053;-82
2021/11/08 07:29:38;;;;;;;17.58;8.23;;;;;;;5.52;76.31;97878.28;4971859;28;20039;-83
2021/11/08 07:32:06;;;;;;;15.20;6.65;;;;;;;5.46;76.19;97869.38;4973069;28;20046;-83
2021/11/08 07:34:33;;;;;;;16.88;7.68;;;;;;;5.56;76.06;97863.06;4948765;28;20105;-82
2021/11/08 07:37:00;;;;;;;18.50;7.67;;;;;;;5.49;76.76;97882.38;4953011;28;20067;-82
2021/11/08 07:39:26;;;;;;;17.55;7.70;;;;;;;5.51;76.80;97863.94;4970549;28;20538;-81
2021/11/08 07:41:52;;;;;;;18.23;7.68;;;;;;;5.53;76.77;97867.16;4969063;28;20045;-81
2021/11/08 07:44:19;;;;;;;16.58;7.88;;;;;;;5.51;76.60;97869.34;4937993;28;20495;-83
2021/11/08 07:46:45;;;;;;;13.73;6.68;;;;;;;5.48;76.58;97875.34;4969012;28;20047;-82
2021/11/08 07:49:12;;;;;;;15.90;7.93;;;;;;;5.53;76.45;97850.88;4970260;28;20061;-82
2021/11/08 07:51:38;;;;;;;15.10;6.95;;;;;;;5.52;76.60;97843.84;4970390;28;20042;-82
2021/11/08 07:54:04;;;;;;;16.30;7.18;;;;;;;5.47;76.85;97848.53;4970880;28;20376;-80
2021/11/08 07:56:30;;;;;;;15.43;7.13;;;;;;;5.43;76.84;97850.19;4972667;28;20046;-81
2021/11/08 07:58:56;;;;;;;18.08;7.10;;;;;;;5.51;76.28;97836.81;4936892;28;20058;-74
2021/11/08 08:01:23;;;;;;;15.52;6.38;;;;;;;5.46;76.90;97844.19;4967711;28;20129;-74
2021/11/08 08:03:49;;;;;;;14.95;7.10;;;;;;;5.53;76.76;97825.66;4968026;28;20106;-74
2021/11/08 08:06:17;;;;;;;15.50;6.70;;;;;;;5.56;76.89;97830.53;4971352;28;20467;-75
2021/11/08 08:08:46;;;;;;;15.43;7.20;;;;;;;5.54;76.66;97857.09;4965956;28;20051;-74
2021/11/08 08:11:13;;;;;;;13.27;6.15;;;;;;;5.51;76.75;97842.25;4965898;28;20074;-74
2021/11/08 08:13:40;;;;;;;16.13;7.40;;;;;;;5.37;77.09;97852.94;4963960;28;20050;-74
2021/11/08 08:16:08;;;;;;;16.55;6.78;;;;;;;5.44;76.84;97852.59;4951343;28;20054;-74
2021/11/08 08:18:39;;;;;;;14.75;6.13;;;;;;;5.45;77.13;97845.28;4967987;28;20113;-74
2021/11/08 08:21:06;;;;;;;15.30;6.68;;;;;;;5.58;76.79;97828.34;4954258;28;20042;-74
2021/11/08 08:23:34;;;;;;;13.02;6.05;;;;;;;5.55;76.83;97842.47;4953414;28;20045;-74
2021/11/08 08:26:00;;;;;;;13.30;6.22;;;;;;;5.48;77.19;97831.97;4956708;28;20051;-75
2021/11/08 08:28:26;;;;;;;13.40;6.35;;;;;;;5.49;77.17;97819.22;4968628;28;20515;-74
2021/11/08 08:30:52;;;;;;;13.98;6.55;;;;;;;5.52;76.99;97811.31;4972439;28;20050;-74
2021/11/08 08:33:18;;;;;;;14.77;6.40;;;;;;;5.59;76.57;97824.53;4969529;28;20541;-74
2021/11/08 08:35:45;;;;;;;13.52;6.38;;;;;;;5.53;76.51;97801.28;4968801;28;20046;-74
2021/11/08 08:38:14;;;;;;;13.65;6.30;;;;;;;5.46;76.42;97817.09;4954773;28;20078;-73
2021/11/08 08:40:42;;;;;;;14.63;6.25;;;;;;;5.56;76.59;97829.72;4970075;28;20055;-74
2021/11/08 08:43:08;;;;;;;14.50;6.43;;;;;;;5.56;76.51;97827.81;4964032;28;20046;-74
2021/11/08 08:45:36;;;;;;;13.02;6.13;;;;;;;5.62;76.29;97809.56;4936535;28;20520;-74
2021/11/08 08:48:03;;;;;;;14.10;6.40;;;;;;;5.60;76.27;97823.44;4969226;28;20046;-74
2021/11/08 08:50:29;;;;;;;14.75;6.72;;;;;;;5.58;76.18;97820.19;4968176;28;20070;-73
2021/11/08 08:52:55;;;;;;;14.90;6.45;;;;;;;5.61;76.33;97818.78;4950119;28;20042;-74
2021/11/08 08:55:22;;;;;;;16.85;6.95;;;;;;;5.62;76.39;97799.53;4969440;28;20046;-74
2021/11/08 08:57:50;;;;;;;14.32;6.70;;;;;;;5.57;76.46;97818.59;4951155;28;20055;-75
2021/11/08 09:00:18;;;;;;;13.68;6.22;;;;;;;5.63;76.43;97808.50;4968522;28;20050;-75
2021/11/08 09:02:44;;;;;;;16.50;6.45;;;;;;;5.68;76.24;97808.41;4970301;28;20039;-76
2021/11/08 09:05:10;;;;;;;14.52;6.35;;;;;;;5.71;76.21;97799.69;4957289;28;20051;-76
2021/11/08 09:07:37;;;;;;;16.77;7.32;;;;;;;5.70;76.42;97803.50;4970294;28;20129;-74
2021/11/08 09:10:04;;;;;;;18.50;7.97;;;;;;;5.58;76.98;97797.69;4968831;28;20085;-75
2021/11/08 09:12:30;;;;;;;16.42;7.35;;;;;;;5.59;77.05;97810.97;4953242;28;20121;-75
2021/11/08 09:14:58;;;;;;;20.70;7.05;;;;;;;5.55;77.12;97788.25;4968784;28;20051;-75
2021/11/08 09:17:24;;;;;;;13.55;6.63;;;;;;;5.70;76.77;97794.53;4937889;28;20062;-74
2021/11/08 09:19:50;;;;;;;12.05;6.47;;;;;;;5.67;76.73;97785.91;4952581;28;20066;-75
2021/11/08 09:22:16;;;;;;;14.35;7.20;;;;;;;5.71;76.66;97793.47;4956812;28;20046;-75
2021/11/08 09:24:43;;;;;;;19.02;7.43;;;;;;;5.67;76.87;97785.09;4952347;28;20062;-75
2021/11/08 09:27:10;;;;;;;15.00;6.65;;;;;;;5.72;76.75;97793.16;4953476;28;20051;-74
2021/11/08 09:29:36;;;;;;;16.33;7.35;;;;;;;5.71;76.66;97790.75;4970299;28;20082;-75
2021/11/08 09:32:06;;;;;;;16.38;7.75;;;;;;;5.67;76.47;97788.63;4971724;28;20451;-76
2021/11/08 09:34:40;;;;;;;16.52;7.45;;;;;;;5.72;76.80;97784.25;4969271;28;20051;-74
2021/11/08 09:37:11;;;;;;;15.25;7.55;;;;;;;5.76;76.58;97791.47;4969093;28;20051;-75
2021/11/08 09:39:39;;;;;;;15.88;7.07;;;;;;;5.78;76.20;97781.16;4970031;28;20373;-76
2021/11/08 09:42:09;;;;;;;16.13;7.28;;;;;;;5.66;76.63;97805.19;4971243;28;20047;-75
2021/11/08 09:44:35;;;;;;;16.95;7.57;;;;;;;5.76;76.48;97780.63;4952343;28;20532;-75
2021/11/08 09:47:03;;;;;;;16.17;7.93;;;;;;;5.79;76.35;97790.09;4971907;28;20047;-77
2021/11/08 09:49:30;;;;;;;15.95;7.55;;;;;;;5.77;76.42;97784.16;4972087;28;20049;-75
2021/11/08 09:51:58;;;;;;;17.42;7.53;;;;;;;5.79;76.33;97780.06;4969828;28;20508;-75
2021/11/08 09:54:28;;;;;;;16.17;7.63;;;;;;;5.79;76.34;97781.97;4970044;28;20039;-75
2021/11/08 09:56:57;;;;;;;16.92;8.15;;;;;;;5.81;76.36;97786.00;4974346;28;20113;-75
2021/11/08 09:59:24;;;;;;;17.33;8.05;;;;;;;5.86;75.96;97787.03;4972674;28;20515;-75
2021/11/08 10:01:51;;;;;;;16.17;7.70;;;;;;;5.87;76.02;97775.91;4971972;28;20047;-75
2021/11/08 10:04:19;;;;;;;18.13;7.00;;;;;;;5.87;75.77;97770.47;4973507;28;20443;-75
2021/11/08 10:06:46;;;;;;;;;;;;;;;5.84;75.76;97745.81;4974749;28;20065;-74
2021/11/08 10:09:13;;;;;;;18.60;7.33;;;;;;;5.87;75.75;97765.03;4975355;28;19925;-75
2021/11/08 10:11:41;;;;;;;15.80;8.00;;;;;;;5.85;75.66;97742.00;4958108;28;20506;-74
2021/11/08 10:14:08;;;;;;;14.57;6.72;;;;;;;5.94;75.54;97780.94;4973904;28;20142;-73
2021/11/08 10:16:37;;;;;;;14.80;8.20;;;;;;;5.78;75.78;97758.66;4953765;29;20076;-73
2021/11/08 10:19:05;;;;;;;15.93;7.85;;;;;;;5.89;75.60;97757.41;4960771;28;20062;-76
2021/11/08 10:21:35;;;;;;;14.98;7.55;;;;;;;5.94;75.34;97751.91;4968314;28;20050;-75
2021/11/08 10:24:08;;;;;;;16.25;7.82;;;;;;;5.84;75.58;97743.91;4973982;28;20047;-75
2021/11/08 10:26:36;;;;;;;17.20;7.93;;;;;;;5.92;75.54;97740.53;4943020;29;20146;-74
2021/11/08 10:29:05;;;;;;;17.10;8.18;;;;;;;6.01;75.34;97769.69;4964307;28;20051;-75
2021/11/08 10:31:33;;;;;;;19.25;8.63;;;;;;;6.01;75.07;97745.28;4974304;28;20047;-76
2021/11/08 10:34:04;;;;;;;17.27;7.60;;;;;;;5.97;75.17;97736.97;4956915;28;20061;-75
2021/11/08 10:36:30;;;;;;;15.00;7.50;;;;;;;5.94;75.11;97742.97;4952048;28;20050;-74
2021/11/08 10:39:01;;;;;;;16.08;7.28;;;;;;;6.02;75.03;97752.38;4971693;28;20047;-75
2021/11/08 10:41:30;;;;;;;17.10;7.55;;;;;;;6.05;74.67;97739.00;4958256;28;20074;-74
2021/11/08 10:44:01;;;;;;;15.60;7.97;;;;;;;6.06;74.62;97750.69;4973033;28;20050;-74
2021/11/08 10:46:31;;;;;;;17.30;7.80;;;;;;;6.04;74.55;97723.84;4973380;28;20111;-74
2021/11/08 10:49:03;;;;;;;17.10;8.15;;;;;;;5.96;74.85;97705.50;4973668;28;20050;-73
2021/11/08 10:51:31;;;;;;;15.10;7.72;;;;;;;5.97;74.84;97723.38;4973622;28;20043;-74
2021/11/08 10:54:01;;;;;;;16.75;7.80;;;;;;;6.01;74.68;97729.84;4974790;28;20047;-73
2021/11/08 10:56:29;;;;;;;16.77;7.85;;;;;;;6.01;74.73;97718.16;4974524;28;20058;-74
2021/11/08 10:58:57;;;;;;;16.35;7.30;;;;;;;5.99;74.40;97715.75;4973129;28;20062;-74
2021/11/08 11:01:28;;;;;;;19.08;8.13;;;;;;;6.04;74.59;97721.13;4971149;28;20054;-74
2021/11/08 11:03:56;;;;;;;17.83;7.57;;;;;;;6.08;74.23;97714.00;4958449;28;20074;-75
2021/11/08 11:06:34;;;;;;;17.75;7.43;;;;;;;6.07;74.17;97700.75;4971684;28;20130;-74
2021/11/08 11:09:10;;;;;;;14.70;7.13;;;;;;;6.09;74.18;97712.09;4971641;28;20066;-74
2021/11/08 11:11:36;;;;;;;14.75;7.25;;;;;;;6.04;74.36;97706.78;4966590;28;20172;-74
2021/11/08 11:14:03;;;;;;;15.57;7.18;;;;;;;5.98;74.79;97730.44;4971204;28;20499;-74
2021/11/08 11:16:32;;;;;;;16.00;8.00;;;;;;;5.97;74.79;97710.63;4969331;28;20042;-74
2021/11/08 11:19:00;;;;;;;17.85;7.25;;;;;;;5.93;74.59;97734.00;4974971;28;20047;-74
2021/11/08 11:21:26;;;;;;;17.58;7.47;;;;;;;5.88;74.71;97725.16;4971775;28;20419;-74
2021/11/08 11:23:55;;;;;;;19.42;7.20;;;;;;;6.04;74.28;97723.84;4953420;28;20058;-74
2021/11/08 11:26:28;;;;;;;15.38;7.25;;;;;;;6.03;74.21;97716.81;4974219;28;20523;-74
2021/11/08 11:28:55;;;;;;;18.15;7.50;;;;;;;6.08;74.40;97711.28;4969334;28;20535;-74
2021/11/08 11:31:24;;;;;;;15.38;7.07;;;;;;;6.15;74.12;97710.91;4969154;28;20046;-74
2021/11/08 11:33:54;;;;;;;16.05;7.18;;;;;;;6.12;74.05;97718.84;4955905;28;20057;-74
2021/11/08 11:36:23;;;;;;;15.23;6.75;;;;;;;6.09;74.25;97704.78;4982632;28;20050;-74
2021/11/08 11:38:54;;;;;;;17.10;7.30;;;;;;;6.12;74.24;97722.34;4973868;28;20054;-74
2021/11/08 11:41:24;;;;;;;16.13;7.60;;;;;;;6.14;74.08;97711.22;4971487;28;20042;-74
2021/11/08 11:43:52;;;;;;;13.98;6.80;;;;;;;6.12;73.88;97695.22;4971771;28;20046;-75
2021/11/08 11:46:20;;;;;;;16.02;6.97;;;;;;;6.12;74.12;97705.28;4968487;28;20047;-74
2021/11/08 11:48:47;;;;;;;16.65;6.93;;;;;;;6.14;74.15;97713.94;4969712;28;20105;-74
2021/11/08 11:51:16;;;;;;;15.77;6.97;;;;;;;6.15;74.15;97697.34;4972220;28;20431;-74
2021/11/08 11:53:43;;;;;;;15.80;7.07;;;;;;;6.10;74.10;97702.84;4972705;28;20113;-74
2021/11/08 11:56:09;;;;;;;15.73;6.50;;;;;;;6.05;74.73;97687.47;4970224;28;20062;-74
2021/11/08 11:58:37;;;;;;;15.07;7.25;;;;;;;6.01;74.81;97696.44;4966031;28;20561;-74
2021/11/08 12:01:04;;;;;;;;;;;;;;;6.08;74.57;97683.38;4972390;28;20046;-74
2021/11/08 12:03:31;;;;;;;16.40;6.38;;;;;;;6.13;74.27;97682.47;4953873;28;20297;-74
2021/11/08 12:05:58;;;;;;;13.98;6.75;;;;;;;6.08;74.54;97700.44;4969381;28;20042;-74
2021/11/08 12:08:27;;;;;;;16.15;6.63;;;;;;;5.98;74.74;97697.88;4953895;28;20055;-74
2021/11/08 12:10:53;;;;;;;16.77;6.90;;;;;;;6.02;74.70;97715.19;4972634;28;20117;-76
2021/11/08 12:13:21;;;;;;;16.52;6.43;;;;;;;6.01;74.56;97700.03;4972599;28;20082;-74
2021/11/08 12:15:50;;;;;;;15.35;6.68;;;;;;;6.09;74.47;97695.81;4970604;28;20258;-73
2021/11/08 12:18:17;;;;;;;13.88;6.88;;;;;;;6.03;74.46;97697.03;4969767;28;20058;-75
2021/11/08 12:20:47;;;;;;;13.43;6.55;;;;;;;6.04;74.68;97706.78;4970330;28;20047;-74
2021/11/08 12:23:17;;;;;;;16.92;7.20;;;;;;;6.00;74.80;97722.78;4980641;28;20058;-74
2021/11/08 12:25:45;;;;;;;15.55;6.47;;;;;;;6.08;74.46;97692.28;4968933;28;20502;-69
2021/11/08 12:28:14;;;;;;;14.25;6.75;;;;;;;6.15;74.30;97699.25;4954745;28;20137;-69
2021/11/08 12:30:42;;;;;;;14.65;6.22;;;;;;;6.22;74.06;97694.25;4969848;28;20142;-69
2021/11/08 12:33:26;;;;;;;14.18;6.05;;;;;;;6.30;73.83;97695.47;4970755;28;20487;-69
2021/11/08 12:35:54;;;;;;;22.85;7.50;;;;;;;6.22;74.13;97699.66;4971114;28;20043;-73
2021/11/08 12:38:22;;;;;;;17.55;6.93;;;;;;;6.15;74.42;97696.53;4969901;28;20513;-74
2021/11/08 12:40:50;;;;;;;18.90;6.78;;;;;;;6.10;74.37;97687.41;4973602;28;20093;-73
2021/11/08 12:43:24;;;;;;;14.65;6.63;;;;;;;6.12;74.39;97691.72;4970655;28;20066;-74
2021/11/08 12:45:50;;;;;;;15.57;6.55;;;;;;;6.09;74.47;97698.53;4975585;28;20126;-73
2021/11/08 12:48:18;;;;;;;24.13;7.80;;;;;;;6.10;74.65;97689.28;4972991;28;20046;-73
2021/11/08 12:50:48;;;;;;;15.52;7.28;;;;;;;6.07;75.05;97685.25;4967273;28;20531;-73
2021/11/08 12:53:23;;;;;;;19.17;7.70;;;;;;;6.09;75.07;97707.50;4970123;28;20236;-72
2021/11/08 12:55:49;;;;;;;17.70;7.43;;;;;;;6.02;75.53;97717.13;4971283;28;20047;-72
2021/11/08 12:58:16;;;;;;;15.00;6.68;;;;;;;6.08;75.32;97699.63;4975263;28;20066;-73
2021/11/08 13:00:50;;;;;;;19.50;6.90;;;;;;;6.00;75.67;97692.94;4950928;28;20094;-73
2021/11/08 13:03:27;;;;;;;20.15;7.60;;;;;;;6.00;75.55;97689.41;4973487;28;20069;-80
2021/11/08 13:05:54;;;;;;;14.88;7.03;;;;;;;6.15;75.64;97743.47;4969048;28;20530;-73
2021/11/08 13:08:22;;;;;;;21.05;7.45;;;;;;;6.08;75.88;97721.34;4970140;28;20043;-72
2021/11/08 13:10:57;;;;;;;13.90;6.88;;;;;;;6.06;76.13;97705.34;4970357;28;20134;-74
2021/11/08 13:13:23;;;;;;;15.57;6.82;;;;;;;6.08;76.28;97716.72;4970295;28;20046;-74
2021/11/08 13:15:49;;;;;;;17.45;7.40;;;;;;;6.00;76.59;97705.69;4970041;28;20075;-74
2021/11/08 13:18:16;;;;;;;13.02;6.57;;;;;;;5.96;76.99;97724.50;4970042;28;20046;-74
2021/11/08 13:20:45;;;;;;;17.05;7.80;;;;;;;5.85;77.12;97699.41;4969002;28;20125;-75
2021/11/08 13:23:13;;;;;;;17.23;7.55;;;;;;;5.91;77.40;97728.09;4962300;28;20141;-75
2021/11/08 13:25:45;;;;;;;16.52;7.97;;;;;;;5.92;77.62;97713.41;4970316;28;20081;-74
2021/11/08 13:28:14;;;;;;;15.60;7.65;;;;;;;5.99;77.23;97704.91;4971558;28;20074;-75